Time;durP1;ratioP1;P1;durP2;ratioP2;P2;SDS_P1;SDS_P2;PMS_P1;PMS_P2;Temp;Humidity;BMP_temperature;BMP_pressure;BME280_temperature;BME280_humidity;BME280_pressure;Samples;Min_cycle;Max_cycle;Signal;HPM_P1;HPM_P2
2021/06/15 00:01:05;;;;;;;8.90;1.67;;;;;;;21.25;43.41;101224.16;4994765;28;20476;-85
2021/06/15 00:03:30;;;;;;;8.68;1.77;;;;;;;21.09;43.16;101218.66;5026502;28;20030;-85
2021/06/15 00:05:55;;;;;;;9.77;2.20;;;;;;;21.04;43.51;101213.78;4994801;28;20117;-86
2021/06/15 00:08:21;;;;;;;8.32;1.75;;;;;;;20.96;43.73;101219.88;4994796;28;20077;-85
2021/06/15 00:10:47;;;;;;;7.72;1.42;;;;;;;21.05;43.46;101217.28;4994361;28;20019;-85
2021/06/15 00:13:13;;;;;;;5.85;1.70;;;;;;;21.01;43.21;101211.44;4994539;28;20042;-86
2021/06/15 00:15:47;;;;;;;12.48;1.73;;;;;;;20.73;44.06;101202.63;4994634;28;20027;-85
2021/06/15 00:18:13;;;;;;;5.20;1.38;;;;;;;20.45;44.28;101205.28;4994347;28;20500;-85
2021/06/15 00:20:38;;;;;;;10.68;2.03;;;;;;;20.31;44.43;101205.81;4994426;28;20030;-86
2021/06/15 00:23:03;;;;;;;12.10;1.60;;;;;;;20.20;45.32;101202.34;4994408;28;20022;-86
2021/06/15 00:25:29;;;;;;;8.77;1.80;;;;;;;20.26;44.77;101206.25;4993530;28;20066;-85
2021/06/15 00:27:54;;;;;;;8.90;1.63;;;;;;;20.32;44.86;101211.00;4994308;28;20468;-85
2021/06/15 00:30:21;;;;;;;5.32;1.70;;;;;;;20.26;44.60;101205.41;4994198;28;20030;-86
2021/06/15 00:32:48;;;;;;;13.38;2.05;;;;;;;20.21;43.92;101209.34;4994055;28;20026;-85
2021/06/15 00:35:14;;;;;;;9.73;1.83;;;;;;;20.17;44.25;101205.31;4994117;28;20420;-85
2021/06/15 00:37:39;;;;;;;6.68;1.55;;;;;;;20.16;44.41;101200.97;4994143;28;20028;-85
2021/06/15 00:40:06;;;;;;;4.60;1.20;;;;;;;20.10;44.38;101198.91;4993908;28;20133;-85
2021/06/15 00:42:32;;;;;;;7.13;1.70;;;;;;;20.06;44.73;101189.47;4993875;28;20094;-85
2021/06/15 00:44:57;;;;;;;6.95;1.88;;;;;;;20.03;43.62;101191.63;4993854;28;20441;-85
2021/06/15 00:47:23;;;;;;;6.30;1.55;;;;;;;19.96;44.04;101197.56;4993866;28;20031;-85
2021/06/15 00:49:48;;;;;;;7.63;1.65;;;;;;;19.94;44.21;101201.31;4993801;28;20088;-86
2021/06/15 00:52:14;;;;;;;7.40;1.92;;;;;;;19.93;44.01;101205.00;4993833;28;20023;-85
2021/06/15 00:54:43;;;;;;;5.15;1.50;;;;;;;19.83;44.80;101204.16;4993990;28;20026;-85
2021/06/15 00:57:15;;;;;;;10.55;1.65;;;;;;;20.02;44.45;101209.44;4993472;28;20066;-86
2021/06/15 00:59:40;;;;;;;6.43;1.60;;;;;;;19.57;45.00;101210.94;4993821;28;20408;-86
2021/06/15 01:02:05;;;;;;;4.63;1.25;;;;;;;19.38;45.65;101211.81;4993681;28;20113;-85
2021/06/15 01:04:31;;;;;;;7.47;1.40;;;;;;;19.39;45.98;101201.97;4993568;28;20559;-86
2021/06/15 01:07:08;;;;;;;7.68;1.48;;;;;;;19.37;46.02;101202.16;4993630;28;20424;-85
2021/06/15 01:09:36;;;;;;;9.00;1.95;;;;;;;19.20;46.16;101203.69;4993487;28;20026;-85
2021/06/15 01:12:25;;;;;;;7.72;1.77;;;;;;;19.27;47.07;101192.47;4993367;28;20061;-85
2021/06/15 01:15:12;;;;;;;8.18;1.77;;;;;;;19.24;46.49;101209.59;4993418;28;20100;-86
2021/06/15 01:17:56;;;;;;;11.20;1.67;;;;;;;19.18;46.59;101216.31;4993635;28;20034;-85
2021/06/15 01:20:46;;;;;;;5.68;1.30;;;;;;;19.01;46.87;101214.34;4993570;28;20030;-85
2021/06/15 01:23:33;;;;;;;9.95;1.63;;;;;;;19.50;45.58;101209.81;4993055;28;20034;-85
2021/06/15 01:26:17;;;;;;;10.38;1.67;;;;;;;19.27;46.19;101208.44;4993186;28;20031;-86
2021/06/15 01:28:57;;;;;;;5.63;2.05;;;;;;;19.38;46.18;101201.16;4993147;28;20469;-85
2021/06/15 01:31:25;;;;;;;10.57;1.95;;;;;;;19.33;45.59;101203.41;4993165;28;20026;-85
2021/06/15 01:33:57;;;;;;;6.90;1.50;;;;;;;19.37;45.72;101212.81;4993293;28;20027;-85
2021/06/15 01:36:29;;;;;;;9.02;1.98;;;;;;;19.40;45.13;101209.84;4992403;28;20041;-85
2021/06/15 01:38:57;;;;;;;8.95;1.80;;;;;;;19.36;45.68;101213.78;4992932;28;20027;-85
2021/06/15 01:41:32;;;;;;;7.57;1.13;;;;;;;19.16;46.18;101212.13;4992787;28;20033;-85
2021/06/15 01:44:02;;;;;;;7.60;1.65;;;;;;;19.33;45.51;101210.53;4993034;28;20026;-86
2021/06/15 01:46:33;;;;;;;4.05;1.20;;;;;;;19.36;45.53;101207.63;4992870;28;20080;-85
2021/06/15 01:49:06;;;;;;;4.47;1.35;;;;;;;19.41;45.37;101206.22;4992977;28;20432;-85
2021/06/15 01:51:34;;;;;;;3.75;1.08;;;;;;;19.40;45.58;101201.84;4992784;28;20014;-85
2021/06/15 01:54:10;;;;;;;5.90;1.75;;;;;;;19.42;44.69;101207.88;4992549;28;20018;-85
2021/06/15 01:56:38;;;;;;;7.93;2.10;;;;;;;19.32;45.49;101196.41;4992900;28;20053;-86
2021/06/15 01:59:05;;;;;;;8.73;1.63;;;;;;;19.32;44.85;101190.25;4992584;28;20370;-85
2021/06/15 02:01:34;;;;;;;5.28;1.23;;;;;;;19.28;45.24;101187.00;4992720;28;20110;-86
2021/06/15 02:04:02;;;;;;;5.57;1.33;;;;;;;19.30;45.02;101195.69;4992712;28;20034;-86
2021/06/15 02:06:29;;;;;;;4.20;1.35;;;;;;;19.38;44.50;101190.50;4992496;28;20113;-86
2021/06/15 02:08:58;;;;;;;5.57;1.30;;;;;;;19.48;44.57;101187.00;4992304;28;20031;-87
2021/06/15 02:11:28;;;;;;;5.93;1.42;;;;;;;19.40;45.16;101191.19;4992091;28;20109;-85
2021/06/15 02:13:54;;;;;;;7.63;2.22;;;;;;;19.33;45.25;101186.59;4992359;28;20034;-85
2021/06/15 02:16:22;;;;;;;7.80;1.75;;;;;;;19.35;44.33;101171.31;4992530;28;20026;-85
2021/06/15 02:18:57;;;;;;;6.97;1.58;;;;;;;19.19;45.18;101175.41;4992445;28;20440;-85
2021/06/15 02:21:26;;;;;;;5.13;1.45;;;;;;;19.22;44.80;101187.59;4992367;28;20038;-85
2021/06/15 02:23:57;;;;;;;7.05;1.83;;;;;;;19.27;45.40;101181.81;4992441;28;20030;-85
2021/06/15 02:26:25;;;;;;;8.15;1.88;;;;;;;19.03;45.55;101175.94;4991954;28;20530;-85
2021/06/15 02:28:50;;;;;;;7.65;1.85;;;;;;;18.93;46.11;101185.75;5023762;28;20444;-85
2021/06/15 02:31:20;;;;;;;10.57;2.00;;;;;;;19.02;46.14;101187.59;4992397;28;20536;-85
2021/06/15 02:33:53;;;;;;;6.32;1.80;;;;;;;19.01;46.24;101182.41;4992304;28;20031;-85
2021/06/15 02:36:24;;;;;;;6.70;1.60;;;;;;;18.90;46.39;101178.06;4992148;28;20096;-85
2021/06/15 02:39:01;;;;;;;5.40;1.75;;;;;;;18.93;46.83;101175.13;4992185;28;20481;-85
2021/06/15 02:41:30;;;;;;;4.55;1.50;;;;;;;18.85;46.51;101179.47;5002247;28;20057;-85
2021/06/15 02:44:01;;;;;;;7.93;2.08;;;;;;;18.63;47.25;101171.56;5011852;28;20482;-85
2021/06/15 02:46:30;;;;;;;8.88;1.65;;;;;;;18.83;46.78;101169.78;5010394;28;20083;-85
2021/06/15 02:48:59;;;;;;;4.60;1.90;;;;;;;18.77;46.49;101172.16;5015211;28;20072;-85
2021/06/15 02:51:28;;;;;;;5.15;1.88;;;;;;;18.87;46.58;101172.19;5015570;28;20157;-85
2021/06/15 02:54:26;;;;;;;7.35;1.90;;;;;;;18.81;46.97;101170.91;5015749;28;20029;-85
2021/06/15 02:56:57;;;;;;;13.05;2.47;;;;;;;18.71;47.49;101168.22;4995363;28;20019;-85
2021/06/15 02:59:22;;;;;;;11.68;1.95;;;;;;;18.58;47.09;101160.53;4995961;28;20404;-85
2021/06/15 03:01:49;;;;;;;12.13;2.00;;;;;;;18.61;47.97;101165.53;4995909;28;20031;-85
2021/06/15 03:04:16;;;;;;;7.20;1.70;;;;;;;18.48;48.36;101164.13;4996103;28;20041;-85
2021/06/15 03:06:42;;;;;;;9.82;2.25;;;;;;;18.51;48.16;101162.03;4995825;28;20503;-85
2021/06/15 03:09:08;;;;;;;7.78;1.83;;;;;;;18.47;47.94;101157.97;4995782;28;20505;-85
2021/06/15 03:11:37;;;;;;;6.28;1.73;;;;;;;18.56;48.29;101157.16;4995282;28;20101;-85
2021/06/15 03:14:22;;;;;;;7.43;1.90;;;;;;;18.52;48.41;101163.72;4995618;28;20042;-85
2021/06/15 03:16:50;;;;;;;9.25;2.33;;;;;;;18.17;49.30;101166.88;4995767;28;20037;-85
2021/06/15 03:19:27;;;;;;;13.00;2.30;;;;;;;18.40;48.63;101162.16;4995827;28;20369;-85
2021/06/15 03:22:12;;;;;;;7.88;2.13;;;;;;;18.42;48.38;101160.19;4995412;28;20022;-85
2021/06/15 03:24:42;;;;;;;7.35;2.50;;;;;;;18.16;48.57;101159.84;4995554;28;20030;-85
2021/06/15 03:27:11;;;;;;;10.73;2.80;;;;;;;18.17;48.66;101150.91;4995613;28;20045;-85
2021/06/15 03:29:39;;;;;;;5.90;2.28;;;;;;;18.18;48.62;101164.03;4995060;28;20101;-85
2021/06/15 03:32:11;;;;;;;7.75;2.20;;;;;;;18.09;49.29;101164.88;4993912;28;20370;-85
2021/06/15 03:34:40;;;;;;;;;;;;;;;18.15;48.86;101159.00;4995897;28;20477;-85
2021/06/15 03:37:08;;;;;;;8.55;2.28;;;;;;;17.96;49.83;101151.81;4995371;28;19996;-85
2021/06/15 03:39:35;;;;;;;9.25;2.17;;;;;;;17.89;49.97;101163.09;4995291;28;20100;-85
2021/06/15 03:42:02;;;;;;;8.93;2.00;;;;;;;17.86;50.50;101163.38;4994971;28;20031;-85
2021/06/15 03:44:28;;;;;;;9.77;2.60;;;;;;;17.73;50.61;101164.41;4994745;28;20477;-85
2021/06/15 03:46:56;;;;;;;9.73;2.10;;;;;;;17.75;50.86;101173.09;4995335;28;20057;-85
2021/06/15 03:49:23;;;;;;;10.45;2.13;;;;;;;17.69;50.24;101172.75;4995233;28;20041;-85
2021/06/15 03:52:00;;;;;;;8.23;2.25;;;;;;;17.64;51.09;101175.81;4995058;28;20037;-85
2021/06/15 03:54:28;;;;;;;6.80;2.72;;;;;;;17.58;51.63;101173.69;4995138;28;20026;-85
2021/06/15 03:56:56;;;;;;;8.73;2.15;;;;;;;17.56;51.95;101191.56;4994742;28;20030;-85
2021/06/15 03:59:26;;;;;;;9.60;2.35;;;;;;;17.48;52.05;101191.38;4994075;28;20037;-85
2021/06/15 04:01:55;;;;;;;10.15;2.30;;;;;;;17.38;52.60;101200.13;4994547;28;20041;-85
2021/06/15 04:04:22;;;;;;;9.23;2.67;;;;;;;17.31;53.00;101198.09;4994821;28;20113;-85
2021/06/15 04:06:50;;;;;;;7.00;2.35;;;;;;;17.42;53.07;101198.06;4994860;28;20088;-85
2021/06/15 04:09:39;;;;;;;5.88;2.35;;;;;;;17.40;52.55;101210.63;4994844;28;20027;-85
2021/06/15 04:12:06;;;;;;;9.88;2.45;;;;;;;17.22;52.64;101200.56;4994606;28;20026;-85
2021/06/15 04:14:34;;;;;;;9.07;2.38;;;;;;;17.05;52.79;101201.13;4994532;28;20026;-85
2021/06/15 04:17:01;;;;;;;10.40;2.63;;;;;;;17.11;53.38;101199.78;4994310;28;20030;-85
2021/06/15 04:19:30;;;;;;;7.25;1.63;;;;;;;17.24;53.59;101205.75;4994396;28;20033;-85
2021/06/15 04:21:59;;;;;;;8.82;2.30;;;;;;;17.34;52.23;101211.13;4994397;28;20045;-85
2021/06/15 04:24:26;;;;;;;8.20;2.65;;;;;;;17.27;52.98;101215.25;4994524;28;20248;-85
2021/06/15 04:26:58;;;;;;;10.52;2.25;;;;;;;17.19;53.97;101223.84;4994331;28;20034;-85
2021/06/15 04:29:23;;;;;;;10.07;2.40;;;;;;;16.86;54.49;101228.31;4994274;28;20057;-85
2021/06/15 04:31:53;;;;;;;6.13;2.08;;;;;;;17.09;54.66;101228.25;4993903;28;20080;-85
2021/06/15 04:34:24;;;;;;;8.60;2.15;;;;;;;17.14;54.70;101218.94;4994413;28;20085;-85
2021/06/15 04:36:50;;;;;;;8.23;2.70;;;;;;;17.11;54.50;101226.31;4994337;28;20034;-85
2021/06/15 04:39:20;;;;;;;5.15;2.08;;;;;;;17.08;54.63;101224.75;4994157;28;20031;-85
2021/06/15 04:41:58;;;;;;;7.22;2.08;;;;;;;16.92;56.03;101230.44;4993886;28;20081;-85
2021/06/15 04:44:31;;;;;;;9.45;2.20;;;;;;;16.84;55.63;101219.63;4994100;28;20045;-85
2021/06/15 04:47:14;;;;;;;7.75;1.70;;;;;;;17.05;55.54;101230.31;4993497;28;20036;-85
2021/06/15 04:49:47;;;;;;;5.13;2.03;;;;;;;16.88;55.75;101238.78;4993905;28;20026;-85
2021/06/15 04:52:15;;;;;;;10.05;2.45;;;;;;;16.87;55.71;101245.09;4993981;28;20035;-85
2021/06/15 04:54:47;;;;;;;9.77;2.15;;;;;;;17.15;55.36;101238.34;4994316;28;20022;-85
2021/06/15 04:57:16;;;;;;;6.80;2.20;;;;;;;17.14;55.52;101244.59;4993738;28;20391;-85
2021/06/15 04:59:43;;;;;;;6.93;2.08;;;;;;;17.12;55.16;101247.41;4993878;28;20027;-85
2021/06/15 05:02:09;;;;;;;7.25;2.00;;;;;;;17.11;55.68;101240.41;4992146;28;20026;-85
2021/06/15 05:04:37;;;;;;;11.02;2.13;;;;;;;17.22;54.26;101245.69;4993581;28;20444;-85
2021/06/15 05:07:03;;;;;;;9.23;2.00;;;;;;;17.15;55.51;101243.66;4993779;28;20039;-87
2021/06/15 05:09:30;;;;;;;11.57;1.95;;;;;;;17.16;55.30;101246.19;4995257;28;20253;-85
2021/06/15 05:11:57;;;;;;;6.82;2.13;;;;;;;17.15;55.29;101248.97;4996881;28;20069;-85
2021/06/15 05:14:25;;;;;;;11.75;2.20;;;;;;;17.25;55.17;101249.88;4997176;28;20516;-84
2021/06/15 05:16:51;;;;;;;10.02;2.28;;;;;;;17.29;55.24;101251.31;4996247;28;20473;-85
2021/06/15 05:19:17;;;;;;;9.20;2.25;;;;;;;17.25;55.16;101249.88;4994907;28;20018;-84
2021/06/15 05:22:07;;;;;;;9.20;2.15;;;;;;;17.42;55.39;101243.19;4992896;28;20519;-83
2021/06/15 05:24:51;;;;;;;7.35;1.75;;;;;;;17.38;54.71;101239.94;4993124;28;20552;-89
2021/06/15 05:27:21;;;;;;;5.95;1.50;;;;;;;17.47;55.44;101248.09;4993394;28;20034;-88
2021/06/15 05:29:46;;;;;;;7.50;1.75;;;;;;;17.42;55.69;101245.84;4995352;28;20033;-93
2021/06/15 05:32:12;;;;;;;8.90;2.25;;;;;;;17.48;55.53;101255.09;4993699;28;20223;-88
2021/06/15 05:34:38;;;;;;;8.75;2.28;;;;;;;17.59;54.45;101252.38;4993084;28;20026;-87
2021/06/15 05:37:05;;;;;;;3.70;1.48;;;;;;;17.76;53.95;101262.41;4992946;28;20502;-88
2021/06/15 05:39:31;;;;;;;7.55;2.17;;;;;;;17.73;54.20;101249.41;4993766;28;20030;-94
2021/06/15 05:41:57;;;;;;;12.05;2.38;;;;;;;17.78;53.07;101241.03;5014115;28;20025;-96
2021/06/15 05:44:23;;;;;;;7.20;1.92;;;;;;;17.91;52.72;101251.47;5001981;28;20022;-89
2021/06/15 05:46:48;;;;;;;9.20;2.40;;;;;;;18.06;52.19;101250.16;4992404;28;20034;-93
2021/06/15 05:49:14;;;;;;;7.53;2.05;;;;;;;18.13;53.15;101261.13;4992448;28;20030;-90
2021/06/15 05:51:39;;;;;;;9.10;2.25;;;;;;;18.20;51.68;101263.09;4991508;28;20041;-89
2021/06/15 05:54:05;;;;;;;9.32;2.28;;;;;;;18.30;52.23;101263.13;4993010;28;20038;-90
2021/06/15 05:56:31;;;;;;;8.52;2.33;;;;;;;18.39;51.80;101264.19;4992722;28;20034;-91
2021/06/15 05:58:57;;;;;;;8.00;1.77;;;;;;;18.41;50.97;101264.88;4993029;28;20022;-90
2021/06/15 06:01:22;;;;;;;12.52;2.65;;;;;;;18.47;51.08;101267.00;4992509;28;20037;-93
2021/06/15 06:09:27;;;;;;;7.18;2.17;;;;;;;18.85;50.76;101278.75;4992774;28;20037;-90
2021/06/15 06:11:52;;;;;;;8.93;2.10;;;;;;;18.85;50.42;101277.91;4992732;28;20022;-90
2021/06/15 06:14:18;;;;;;;7.75;2.05;;;;;;;19.03;51.80;101286.91;4992142;28;20038;-90
2021/06/15 06:16:43;;;;;;;12.30;2.08;;;;;;;19.35;49.62;101278.69;4992554;28;20120;-90
2021/06/15 06:19:10;;;;;;;9.48;2.05;;;;;;;19.55;49.18;101281.31;4992486;28;20026;-90
2021/06/15 06:21:36;;;;;;;10.27;2.25;;;;;;;19.83;48.63;101278.78;4992115;28;20034;-91
2021/06/15 06:24:05;;;;;;;8.48;2.03;;;;;;;19.89;48.17;101278.22;4992241;28;20464;-90
2021/06/15 06:26:31;;;;;;;4.68;2.00;;;;;;;20.00;48.21;101278.91;4992284;28;20038;-90
2021/06/15 06:28:56;;;;;;;10.82;2.20;;;;;;;20.15;46.72;101279.25;4992082;28;20041;-90
2021/06/15 06:31:22;;;;;;;8.48;1.95;;;;;;;20.67;46.26;101277.94;4992354;28;20022;-90
2021/06/15 06:33:47;;;;;;;7.53;2.30;;;;;;;20.97;46.83;101282.97;4992261;28;20025;-90
2021/06/15 06:36:14;;;;;;;10.48;2.33;;;;;;;21.14;45.55;101285.78;4992317;28;20477;-90
2021/06/15 06:38:40;;;;;;;12.25;2.53;;;;;;;21.33;45.18;101282.97;4992419;28;20022;-90
2021/06/15 06:41:05;;;;;;;9.68;1.92;;;;;;;21.30;44.03;101290.44;4992247;28;20027;-90
2021/06/15 06:43:31;;;;;;;13.90;2.38;;;;;;;21.37;43.66;101283.50;4991636;28;20088;-91
2021/06/15 06:45:57;;;;;;;7.55;2.03;;;;;;;21.59;43.70;101287.56;4992006;28;20038;-90
2021/06/15 06:48:22;;;;;;;7.00;2.15;;;;;;;22.03;42.29;101282.19;4992346;28;20034;-90
2021/06/15 06:50:48;;;;;;;9.52;1.73;;;;;;;22.59;42.13;101277.31;4992122;28;20031;-90
2021/06/15 06:53:14;;;;;;;9.82;2.28;;;;;;;23.17;41.27;101276.47;4992255;28;20556;-90
2021/06/15 06:55:39;;;;;;;9.52;2.20;;;;;;;23.41;39.70;101280.16;4991551;28;20050;-91
2021/06/15 06:58:06;;;;;;;8.35;1.60;;;;;;;23.97;38.74;101280.31;4991635;28;20068;-90
2021/06/15 07:00:32;;;;;;;8.52;2.42;;;;;;;24.49;38.39;101279.00;4988213;28;20022;-93
2021/06/15 07:02:58;;;;;;;11.38;2.50;;;;;;;25.08;35.58;101276.66;4989659;28;20485;-90
2021/06/15 07:05:23;;;;;;;9.70;2.30;;;;;;;25.31;36.53;101273.16;4991634;28;20036;-90
2021/06/15 07:07:51;;;;;;;10.95;2.13;;;;;;;25.49;36.25;101267.47;4991931;28;20030;-90
2021/06/15 07:10:16;;;;;;;6.95;1.88;;;;;;;26.38;34.92;101258.66;4990112;28;20331;-91
2021/06/15 07:12:42;;;;;;;8.90;1.80;;;;;;;26.59;34.07;101268.69;4991834;28;20300;-90
2021/06/15 07:15:08;;;;;;;12.63;2.05;;;;;;;26.87;33.72;101272.31;4989637;28;20038;-91
2021/06/15 07:17:34;;;;;;;10.82;2.90;;;;;;;27.47;33.08;101280.19;4991647;28;20022;-91
2021/06/15 07:19:59;;;;;;;7.50;2.25;;;;;;;27.76;32.31;101281.03;4981279;28;20034;-90
2021/06/15 07:22:25;;;;;;;9.35;1.77;;;;;;;28.28;30.96;101274.34;5003727;28;20030;-91
2021/06/15 07:24:50;;;;;;;5.75;1.30;;;;;;;28.76;30.53;101265.41;4991528;28;20027;-91
2021/06/15 07:27:16;;;;;;;6.20;1.88;;;;;;;28.28;30.11;101269.75;4991696;28;20026;-90
2021/06/15 07:29:41;;;;;;;10.75;2.15;;;;;;;29.18;29.16;101272.34;4989254;28;20026;-90
2021/06/15 07:32:06;;;;;;;13.90;2.25;;;;;;;28.99;29.81;101265.88;4990160;28;20022;-90
2021/06/15 07:34:32;;;;;;;6.65;1.80;;;;;;;29.64;28.83;101263.44;4989896;28;20099;-91
2021/06/15 07:36:57;;;;;;;8.23;1.98;;;;;;;29.85;29.30;101266.97;4994697;28;20028;-91
2021/06/15 07:39:23;;;;;;;10.98;1.95;;;;;;;29.45;29.27;101258.88;4992877;28;20038;-91
2021/06/15 07:41:49;;;;;;;10.18;1.80;;;;;;;30.18;28.42;101257.94;4993398;28;20100;-91
2021/06/15 07:44:14;;;;;;;8.68;1.15;;;;;;;30.97;26.99;101256.75;4991486;28;20039;-91
2021/06/15 07:46:40;;;;;;;5.80;1.08;;;;;;;30.96;27.64;101259.66;4992060;28;20035;-90
2021/06/15 07:49:05;;;;;;;11.40;1.95;;;;;;;31.01;26.28;101262.56;4994596;28;20030;-91
2021/06/15 07:51:31;;;;;;;8.60;2.05;;;;;;;31.46;26.00;101259.75;4993813;28;20029;-90
2021/06/15 07:53:56;;;;;;;6.25;1.65;;;;;;;31.82;26.35;101252.72;4992626;28;20045;-91
2021/06/15 07:56:24;;;;;;;5.90;1.52;;;;;;;32.05;24.88;101251.22;4994255;28;20298;-90
2021/06/15 07:58:49;;;;;;;7.15;1.98;;;;;;;31.72;26.17;101234.22;4992600;28;20392;-91
2021/06/15 08:01:14;;;;;;;5.70;1.45;;;;;;;31.14;27.03;101248.06;4981526;28;20041;-91
2021/06/15 08:03:40;;;;;;;8.57;1.83;;;;;;;31.93;25.49;101242.97;4987394;28;20028;-91
2021/06/15 08:06:05;;;;;;;8.55;1.75;;;;;;;32.57;25.61;101243.50;4990309;28;20034;-91
2021/06/15 08:08:31;;;;;;;6.20;2.05;;;;;;;32.47;24.68;101244.03;4989371;28;20037;-96
2021/06/15 08:10:56;;;;;;;7.18;1.45;;;;;;;33.07;24.10;101239.63;4990850;28;20039;-96
2021/06/15 08:13:22;;;;;;;10.30;1.48;;;;;;;33.23;24.59;101240.88;4991992;28;20037;-96
2021/06/15 08:15:49;;;;;;;6.60;1.63;;;;;;;33.78;24.37;101248.72;5007934;28;20480;-95
2021/06/15 08:18:19;;;;;;;7.55;1.83;;;;;;;34.29;24.03;101244.34;5009586;28;20556;-96
2021/06/15 08:20:46;;;;;;;6.80;1.70;;;;;;;34.67;22.51;101236.66;4996806;28;20037;-91
2021/06/15 08:23:11;;;;;;;6.18;1.70;;;;;;;34.88;23.04;101235.13;4994133;28;20066;-95
2021/06/15 08:25:37;;;;;;;10.95;2.45;;;;;;;34.26;23.51;101228.47;4993355;28;20058;-94
2021/06/15 08:28:08;;;;;;;8.57;1.95;;;;;;;34.21;23.81;101231.13;4994130;28;20065;-94
2021/06/15 08:30:34;;;;;;;5.03;1.52;;;;;;;34.62;22.59;101226.44;4989342;28;20467;-94
2021/06/15 08:32:59;;;;;;;4.03;1.50;;;;;;;34.97;23.05;101233.63;4994268;28;20029;-94
2021/06/15 08:35:25;;;;;;;8.45;1.92;;;;;;;35.41;22.37;101235.69;4994563;28;20415;-93
2021/06/15 08:37:51;;;;;;;6.50;1.40;;;;;;;35.15;22.37;101229.81;4994493;28;20460;-94
2021/06/15 08:40:17;;;;;;;6.30;1.80;;;;;;;35.03;22.83;101221.72;4994003;28;20035;-94
2021/06/15 08:42:43;;;;;;;6.00;1.33;;;;;;;35.12;22.70;101222.97;4994043;28;20026;-94
2021/06/15 08:45:11;;;;;;;7.90;1.73;;;;;;;35.04;22.77;101228.84;4993786;28;20034;-94
2021/06/15 08:47:41;;;;;;;6.30;1.65;;;;;;;35.45;22.82;101234.13;4978037;28;20018;-94
2021/06/15 08:50:08;;;;;;;7.97;1.85;;;;;;;34.55;23.90;101225.75;4987773;28;20022;-94
2021/06/15 08:52:35;;;;;;;5.78;1.70;;;;;;;34.70;22.92;101228.00;4993608;28;20026;-95
2021/06/15 08:55:02;;;;;;;6.57;2.00;;;;;;;34.22;22.74;101221.03;4993816;28;20026;-89
2021/06/15 08:57:28;;;;;;;5.50;1.65;;;;;;;34.76;22.30;101229.72;4994431;28;20031;-90
2021/06/15 08:59:54;;;;;;;4.30;1.20;;;;;;;35.10;22.94;101222.38;4993365;28;20098;-93
2021/06/15 09:02:20;;;;;;;8.27;1.77;;;;;;;35.06;22.53;101221.22;4996915;28;20026;-93
2021/06/15 09:04:46;;;;;;;8.90;1.58;;;;;;;35.66;21.72;101210.66;5001861;28;20061;-93
2021/06/15 09:07:11;;;;;;;8.90;1.95;;;;;;;35.33;22.34;101220.59;5001154;28;20034;-93
2021/06/15 09:09:38;;;;;;;8.23;1.83;;;;;;;35.31;22.15;101211.81;5003941;28;20034;-92
2021/06/15 09:12:04;;;;;;;7.70;2.03;;;;;;;35.57;22.31;101198.50;4993226;28;20026;-93
2021/06/15 09:14:43;;;;;;;7.43;1.88;;;;;;;35.43;21.70;101201.63;4993372;28;20157;-93
2021/06/15 09:17:11;;;;;;;8.10;1.58;;;;;;;35.79;22.58;101202.13;4993535;28;20046;-92
2021/06/15 09:19:39;;;;;;;9.45;2.28;;;;;;;36.26;21.54;101196.16;4997170;28;20027;-93
2021/06/15 09:22:04;;;;;;;10.05;1.98;;;;;;;35.80;21.41;101198.31;4992971;28;20492;-94
2021/06/15 09:24:30;;;;;;;7.55;1.60;;;;;;;35.96;21.28;101201.25;4999235;28;20034;-92
2021/06/15 09:27:07;;;;;;;7.80;2.00;;;;;;;36.14;21.75;101193.53;4992646;28;20389;-94
2021/06/15 09:29:43;;;;;;;6.97;1.65;;;;;;;36.61;20.62;101196.78;4993080;28;20026;-93
2021/06/15 09:32:15;;;;;;;12.05;1.80;;;;;;;36.42;22.01;101191.69;4993021;28;20281;-93
2021/06/15 09:35:02;;;;;;;9.02;2.42;;;;;;;35.95;21.22;101189.50;4992896;28;20037;-92
2021/06/15 09:37:35;;;;;;;5.72;1.60;;;;;;;36.52;21.03;101189.03;4992919;28;20101;-93
2021/06/15 09:40:11;;;;;;;13.25;2.00;;;;;;;37.08;21.00;101191.44;4992351;28;20465;-94
2021/06/15 09:42:48;;;;;;;9.93;2.00;;;;;;;36.80;20.66;101191.78;4991565;28;20049;-94
2021/06/15 09:45:25;;;;;;;7.88;1.52;;;;;;;37.13;20.63;101187.97;4992500;28;20168;-93
2021/06/15 09:47:52;;;;;;;7.03;1.80;;;;;;;37.17;20.95;101191.00;4979035;28;20023;-94
2021/06/15 09:50:21;;;;;;;7.88;1.35;;;;;;;37.72;20.32;101180.63;4992380;28;20049;-93
2021/06/15 09:52:46;;;;;;;6.43;1.95;;;;;;;37.82;20.86;101175.19;4992168;28;20085;-95
2021/06/15 09:55:12;;;;;;;9.95;2.10;;;;;;;37.34;20.79;101167.00;4992782;28;20122;-94
2021/06/15 09:57:41;;;;;;;7.72;1.88;;;;;;;38.24;20.22;101160.53;4992573;28;20070;-94
2021/06/15 10:00:11;;;;;;;7.05;1.77;;;;;;;38.22;19.57;101166.28;4992229;28;20092;-93
2021/06/15 10:02:50;;;;;;;9.20;1.92;;;;;;;38.53;20.03;101169.13;4992213;28;20041;-93
2021/06/15 10:05:37;;;;;;;4.85;1.63;;;;;;;38.24;20.24;101160.53;4992675;28;20126;-93
2021/06/15 10:08:13;;;;;;;9.32;1.63;;;;;;;37.87;20.34;101154.09;4992609;28;20073;-94
2021/06/15 10:10:44;;;;;;;10.13;2.03;;;;;;;37.84;20.29;101146.44;4992458;28;20488;-93
2021/06/15 10:13:10;;;;;;;9.18;1.60;;;;;;;38.69;20.31;101156.22;4990920;28;20548;-92
2021/06/15 10:15:38;;;;;;;6.13;1.50;;;;;;;38.71;20.14;101145.78;4998197;28;20025;-93
2021/06/15 10:18:05;;;;;;;6.45;2.15;;;;;;;38.40;20.37;101158.63;5006536;28;20054;-93
2021/06/15 10:20:35;;;;;;;6.68;2.00;;;;;;;39.01;20.15;101150.44;5028061;28;20034;-92
2021/06/15 10:23:01;;;;;;;4.30;1.23;;;;;;;39.31;20.09;101154.22;4992184;28;20030;-92
2021/06/15 10:25:29;;;;;;;9.23;2.40;;;;;;;39.81;18.48;101152.41;4991569;28;20030;-92
2021/06/15 10:27:56;;;;;;;3.83;0.95;;;;;;;39.51;18.37;101149.78;4989005;28;20038;-93
2021/06/15 10:30:33;;;;;;;4.78;1.60;;;;;;;38.60;19.66;101144.94;4978853;28;20105;-92
2021/06/15 10:33:12;;;;;;;4.78;1.52;;;;;;;38.86;19.87;101145.75;4991799;28;20101;-93
2021/06/15 10:35:46;;;;;;;4.97;1.50;;;;;;;39.60;19.34;101129.69;4992049;28;20436;-92
2021/06/15 10:38:17;;;;;;;5.95;1.50;;;;;;;39.18;19.25;101130.06;4991149;28;20552;-93
2021/06/15 10:40:45;;;;;;;;;;;;;;;38.24;19.83;101136.69;4992243;28;20035;-94
2021/06/15 10:43:20;;;;;;;21.50;1.95;;;;;;;38.97;19.91;101130.09;4992347;28;19992;-93
2021/06/15 10:45:51;;;;;;;7.75;1.38;;;;;;;39.45;19.24;101129.75;4982762;28;20039;-93
2021/06/15 10:48:17;;;;;;;3.95;1.40;;;;;;;39.83;18.71;101124.59;4990357;28;20443;-92
2021/06/15 10:50:51;;;;;;;8.93;1.70;;;;;;;39.88;19.11;101132.06;4994594;28;20022;-93
2021/06/15 10:53:18;;;;;;;10.45;2.58;;;;;;;39.39;18.75;101128.09;4992375;28;20109;-95
2021/06/15 10:55:48;;;;;;;8.15;2.28;;;;;;;39.41;19.51;101118.47;4991449;28;20057;-90
2021/06/15 10:58:15;;;;;;;6.97;1.77;;;;;;;39.47;18.88;101119.28;4992003;28;20030;-90
2021/06/15 11:00:52;;;;;;;8.77;1.60;;;;;;;39.57;19.12;101123.91;4997335;28;20057;-90
2021/06/15 11:03:19;;;;;;;7.35;1.45;;;;;;;39.96;18.08;101118.50;4991737;28;20472;-90
2021/06/15 11:05:51;;;;;;;6.78;1.40;;;;;;;39.27;18.96;101120.97;4991741;28;20034;-90
2021/06/15 11:08:18;;;;;;;16.23;2.63;;;;;;;39.31;18.79;101121.25;4992302;28;20066;-90
2021/06/15 11:11:15;;;;;;;4.25;1.40;;;;;;;38.86;20.00;101129.28;4995324;28;20022;-91
2021/06/15 11:13:51;;;;;;;7.50;1.98;;;;;;;39.04;19.41;101116.09;4993481;28;20504;-91
2021/06/15 11:16:32;;;;;;;5.03;1.35;;;;;;;39.26;18.92;101122.09;4995408;28;20154;-91
2021/06/15 11:19:09;;;;;;;5.35;1.55;;;;;;;40.00;17.94;101121.53;4995364;28;20038;-91
2021/06/15 11:21:44;;;;;;;5.57;1.83;;;;;;;39.16;18.80;101121.28;4995438;28;20083;-91
2021/06/15 11:24:32;;;;;;;11.13;1.60;;;;;;;39.61;19.03;101111.25;4995778;28;20112;-91
2021/06/15 11:27:03;;;;;;;7.38;2.35;;;;;;;39.44;19.06;101109.69;4995516;28;20034;-92
2021/06/15 11:29:36;;;;;;;8.90;2.13;;;;;;;39.65;18.79;101104.91;4995557;28;20023;-91
2021/06/15 11:32:26;;;;;;;7.55;2.00;;;;;;;39.15;18.97;101100.44;4995197;28;20025;-91
2021/06/15 11:34:55;;;;;;;11.07;1.90;;;;;;;38.88;19.87;101096.06;4995020;28;20121;-91
2021/06/15 11:37:23;;;;;;;6.43;1.70;;;;;;;39.09;19.73;101093.31;5027199;28;20392;-91
2021/06/15 11:39:49;;;;;;;7.28;1.63;;;;;;;39.21;19.60;101088.31;4995415;28;20030;-91